createdAt,value
2018-06-29T00:02:11.695Z,17.40
2018-06-29T00:04:39.962Z,17.40
2018-06-29T00:07:08.263Z,17.20
2018-06-29T00:09:36.509Z,17.20
2018-06-29T00:12:04.759Z,17.10
2018-06-29T00:14:33.042Z,17.10
2018-06-29T00:17:01.348Z,17.10
2018-06-29T00:19:29.605Z,17.00
2018-06-29T00:21:57.867Z,16.90
2018-06-29T00:24:26.661Z,16.90
2018-06-29T00:26:54.942Z,16.80
2018-06-29T00:29:23.454Z,16.80
2018-06-29T00:31:57.194Z,16.80
2018-06-29T00:34:26.116Z,16.70
2018-06-29T00:36:54.223Z,16.70
2018-06-29T00:39:22.444Z,16.70
2018-06-29T00:41:50.905Z,16.60
2018-06-29T00:44:19.155Z,16.50
2018-06-29T00:46:47.367Z,16.50
2018-06-29T00:49:15.638Z,16.40
2018-06-29T00:51:43.870Z,16.40
2018-06-29T00:54:12.112Z,16.40
2018-06-29T00:56:40.320Z,16.30
2018-06-29T00:59:08.552Z,16.30
2018-06-29T01:01:36.764Z,16.30
2018-06-29T01:04:05.127Z,16.20
2018-06-29T01:06:33.335Z,16.20
2018-06-29T01:09:01.577Z,16.20
2018-06-29T01:11:29.859Z,16.20
2018-06-29T01:13:58.132Z,16.20
2018-06-29T01:16:26.351Z,16.20
2018-06-29T01:18:59.631Z,16.20
2018-06-29T01:21:27.882Z,16.20
2018-06-29T01:23:56.154Z,16.10
2018-06-29T01:26:24.352Z,16.10
2018-06-29T01:28:52.612Z,16.10
2018-06-29T01:31:20.836Z,16.00
2018-06-29T01:33:49.107Z,16.00
2018-06-29T01:36:17.360Z,16.00
2018-06-29T01:38:45.632Z,16.00
2018-06-29T01:41:13.828Z,16.00
2018-06-29T01:43:42.064Z,16.00
2018-06-29T01:46:10.276Z,15.90
2018-06-29T01:48:38.515Z,15.90
2018-06-29T01:51:06.941Z,15.90
2018-06-29T01:53:35.256Z,15.90
2018-06-29T01:56:03.492Z,15.90
2018-06-29T02:00:59.733Z,15.80
2018-06-29T02:03:27.972Z,15.80
2018-06-29T02:05:56.188Z,15.80
2018-06-29T02:08:24.564Z,15.70
2018-06-29T02:10:52.815Z,15.70
2018-06-29T02:13:21.064Z,15.70
2018-06-29T02:15:49.637Z,15.80
2018-06-29T02:18:17.939Z,15.70
2018-06-29T02:20:46.172Z,15.80
2018-06-29T02:23:14.391Z,15.80
2018-06-29T02:25:42.635Z,15.80
2018-06-29T02:28:10.861Z,15.80
2018-06-29T02:33:07.107Z,15.70
2018-06-29T02:35:35.377Z,15.70
2018-06-29T02:40:31.778Z,15.60
2018-06-29T02:43:00.039Z,15.50
2018-06-29T02:45:28.293Z,15.50
2018-06-29T02:47:56.527Z,15.50
2018-06-29T02:50:24.773Z,15.40
2018-06-29T02:52:53.031Z,15.40
2018-06-29T02:55:21.332Z,15.40
2018-06-29T02:57:49.559Z,15.40
2018-06-29T03:00:17.824Z,15.30
2018-06-29T03:02:46.032Z,15.30
2018-06-29T03:05:14.256Z,15.30
2018-06-29T03:07:42.468Z,15.30
2018-06-29T03:10:10.707Z,15.30
2018-06-29T03:12:38.920Z,15.30
2018-06-29T03:15:07.176Z,15.30
2018-06-29T03:17:35.387Z,15.30
2018-06-29T03:20:03.651Z,15.30
2018-06-29T03:22:31.872Z,15.30
2018-06-29T03:25:00.492Z,15.30
2018-06-29T03:27:31.663Z,15.30
2018-06-29T03:30:06.605Z,15.30
2018-06-29T03:32:34.835Z,15.30
2018-06-29T03:35:03.077Z,15.40
2018-06-29T03:37:31.288Z,15.40
2018-06-29T03:39:59.536Z,15.40
2018-06-29T03:42:27.767Z,15.40
2018-06-29T03:44:55.989Z,15.50
2018-06-29T03:47:24.255Z,15.60
2018-06-29T03:49:52.588Z,15.70
2018-06-29T03:52:20.820Z,15.70
2018-06-29T03:54:49.083Z,15.70
2018-06-29T03:57:17.349Z,15.70
2018-06-29T03:59:45.592Z,15.70
2018-06-29T04:02:13.808Z,15.70
2018-06-29T04:04:42.040Z,15.80
2018-06-29T04:07:10.365Z,15.90
2018-06-29T04:09:38.626Z,16.10
2018-06-29T04:14:34.889Z,16.40
2018-06-29T04:17:03.104Z,16.50
2018-06-29T04:19:31.390Z,16.60
2018-06-29T04:21:59.601Z,16.60
2018-06-29T04:26:55.868Z,16.70
2018-06-29T04:29:24.104Z,16.70
2018-06-29T04:31:52.352Z,16.70
2018-06-29T04:34:20.616Z,16.90
2018-06-29T04:36:48.856Z,17.40
2018-06-29T04:39:17.104Z,17.70
2018-06-29T04:41:45.364Z,18.20
2018-06-29T04:44:13.580Z,18.70
2018-06-29T04:46:41.801Z,18.60
2018-06-29T04:49:10.055Z,18.30
2018-06-29T04:51:38.339Z,18.20
2018-06-29T04:54:06.583Z,18.00
2018-06-29T04:56:34.812Z,17.90
2018-06-29T04:59:03.052Z,17.80
2018-06-29T05:01:31.281Z,17.80
2018-06-29T05:03:59.617Z,17.80
2018-06-29T05:06:27.891Z,17.80
2018-06-29T05:08:56.134Z,17.80
2018-06-29T05:11:24.352Z,17.80
2018-06-29T05:13:52.677Z,17.80
2018-06-29T05:16:20.920Z,17.90
2018-06-29T05:18:49.171Z,18.00
2018-06-29T05:21:17.571Z,18.00
2018-06-29T05:23:46.952Z,18.20
2018-06-29T05:26:15.185Z,18.20
2018-06-29T05:28:43.437Z,18.30
2018-06-29T05:31:12.001Z,18.40
2018-06-29T05:33:40.196Z,18.60
2018-06-29T05:36:08.465Z,18.70
2018-06-29T05:41:05.092Z,18.90
2018-06-29T05:43:33.303Z,18.90
2018-06-29T05:46:01.580Z,19.00
2018-06-29T05:48:30.483Z,19.20
2018-06-29T05:50:58.721Z,19.30
2018-06-29T05:53:26.947Z,19.50
2018-06-29T05:55:55.201Z,19.60
2018-06-29T05:58:23.444Z,19.70
2018-06-29T06:00:51.692Z,19.80
2018-06-29T06:03:19.916Z,19.90
2018-06-29T06:05:48.131Z,20.00
2018-06-29T06:08:16.387Z,20.00
2018-06-29T06:10:44.989Z,20.10
2018-06-29T06:13:13.371Z,20.20
2018-06-29T06:15:41.762Z,20.40
2018-06-29T06:18:10.111Z,20.40
2018-06-29T06:20:38.340Z,20.60
2018-06-29T06:25:40.179Z,20.80
2018-06-29T06:28:08.399Z,20.80
2018-06-29T06:30:36.632Z,20.90
2018-06-29T06:33:04.872Z,21.00
2018-06-29T06:35:33.120Z,21.10
2018-06-29T06:38:01.370Z,21.20
2018-06-29T06:40:29.752Z,21.20
2018-06-29T06:42:58.186Z,21.40
2018-06-29T06:45:26.430Z,21.40
2018-06-29T06:47:54.648Z,21.60
2018-06-29T06:50:23.619Z,21.60
2018-06-29T06:52:52.031Z,21.70
2018-06-29T06:55:20.310Z,21.80
2018-06-29T06:57:48.704Z,22.00
2018-06-29T07:00:17.045Z,22.60
2018-06-29T07:02:45.276Z,22.90
2018-06-29T07:05:13.482Z,23.70
2018-06-29T07:07:41.715Z,24.00
2018-06-29T07:10:09.693Z,24.00
2018-06-29T07:12:37.978Z,24.10
2018-06-29T07:15:06.239Z,24.10
2018-06-29T07:17:34.488Z,24.10
2018-06-29T07:20:02.900Z,24.20
2018-06-29T07:22:31.158Z,24.40
2018-06-29T07:27:27.542Z,25.20
2018-06-29T07:29:55.746Z,25.70
2018-06-29T07:32:24.009Z,26.30
2018-06-29T07:34:52.271Z,28.20
2018-06-29T07:37:20.533Z,29.80
2018-06-29T07:39:48.806Z,31.80
2018-06-29T07:42:17.063Z,34.30
2018-06-29T07:44:45.279Z,37.50
2018-06-29T07:47:13.600Z,38.80
2018-06-29T07:49:41.983Z,39.70
2018-06-29T07:52:10.379Z,40.50
2018-06-29T07:54:39.168Z,40.60
2018-06-29T07:57:07.411Z,41.20
2018-06-29T07:59:35.988Z,41.80
2018-06-29T08:02:04.557Z,42.40
2018-06-29T08:04:32.792Z,42.70
2018-06-29T08:07:01.060Z,42.70
2018-06-29T08:09:29.487Z,42.40
2018-06-29T08:11:57.712Z,42.30
2018-06-29T08:14:25.953Z,41.80
2018-06-29T08:16:54.229Z,40.40
2018-06-29T08:19:22.495Z,39.90
2018-06-29T08:21:50.729Z,40.10
2018-06-29T08:24:19.125Z,40.70
2018-06-29T08:26:47.562Z,40.60
2018-06-29T08:29:15.807Z,40.70
2018-06-29T08:34:12.427Z,41.30
2018-06-29T08:36:40.712Z,41.90
2018-06-29T08:39:09.439Z,41.80
2018-06-29T08:41:37.853Z,42.70
2018-06-29T08:44:06.356Z,41.50
2018-06-29T08:46:34.639Z,41.30
2018-06-29T08:49:02.947Z,41.00
2018-06-29T08:51:31.212Z,41.90
2018-06-29T08:56:27.432Z,42.00
2018-06-29T08:58:55.919Z,40.70
2018-06-29T09:01:24.229Z,39.40
2018-06-29T09:03:52.583Z,38.10
2018-06-29T09:06:20.935Z,37.80
2018-06-29T09:08:49.208Z,37.70
2018-06-29T09:11:17.450Z,37.90
2018-06-29T09:13:45.758Z,38.40
2018-06-29T09:16:13.974Z,39.70
2018-06-29T09:18:42.285Z,40.70
2018-06-29T09:21:10.497Z,40.20
2018-06-29T09:26:06.791Z,39.80
2018-06-29T09:28:35.038Z,40.20
2018-06-29T09:33:31.336Z,41.40
2018-06-29T09:35:59.568Z,40.90
2018-06-29T09:38:27.805Z,40.00
2018-06-29T09:40:56.487Z,40.50
2018-06-29T09:43:24.783Z,40.00
2018-06-29T09:45:53.167Z,38.90
2018-06-29T09:48:21.441Z,39.10
2018-06-29T09:50:49.664Z,39.00
2018-06-29T09:53:17.941Z,39.00
2018-06-29T09:55:46.147Z,38.90
2018-06-29T09:58:14.402Z,38.80
2018-06-29T10:00:42.667Z,38.70
2018-06-29T10:03:10.887Z,39.40
2018-06-29T10:05:39.091Z,39.60
2018-06-29T10:08:07.313Z,39.70
2018-06-29T10:10:35.587Z,39.50
2018-06-29T10:17:59.944Z,38.60
2018-06-29T10:20:28.151Z,37.60
2018-06-29T10:22:56.420Z,37.30
2018-06-29T10:25:24.667Z,36.40
2018-06-29T10:27:52.942Z,35.30
2018-06-29T10:30:21.162Z,34.30
2018-06-29T10:32:49.633Z,32.90
2018-06-29T10:35:17.864Z,32.20
2018-06-29T10:37:46.116Z,31.80
2018-06-29T10:40:14.359Z,31.80
2018-06-29T10:42:42.584Z,32.10
2018-06-29T10:45:10.791Z,32.50
2018-06-29T10:47:39.015Z,32.60
2018-06-29T10:50:07.243Z,31.80
2018-06-29T10:52:35.504Z,31.40
2018-06-29T10:55:03.738Z,31.50
2018-06-29T10:57:31.970Z,31.90
2018-06-29T11:00:00.218Z,32.40
2018-06-29T11:02:28.931Z,32.20
2018-06-29T11:04:57.170Z,31.80
2018-06-29T11:07:25.483Z,31.70
2018-06-29T11:09:53.815Z,31.80
2018-06-29T11:12:22.061Z,31.60
2018-06-29T11:14:50.476Z,31.40
2018-06-29T11:17:18.709Z,31.00
2018-06-29T11:19:47.000Z,31.00
2018-06-29T11:22:15.247Z,31.30
2018-06-29T11:24:43.472Z,31.80
2018-06-29T11:27:11.671Z,31.80
2018-06-29T11:29:39.928Z,31.50
2018-06-29T11:32:08.690Z,31.60
2018-06-29T11:34:37.023Z,32.00
2018-06-29T11:37:05.271Z,32.00
2018-06-29T11:39:33.493Z,32.00
2018-06-29T11:42:01.739Z,31.90
2018-06-29T11:44:30.016Z,32.20
2018-06-29T11:46:58.219Z,32.50
2018-06-29T11:49:26.464Z,32.50
2018-06-29T11:51:54.708Z,32.50
2018-06-29T11:54:22.995Z,32.90
2018-06-29T11:56:51.244Z,33.20
2018-06-29T11:59:19.534Z,33.30
2018-06-29T12:01:47.775Z,33.30
2018-06-29T12:04:16.002Z,33.10
2018-06-29T12:06:44.312Z,32.70
2018-06-29T12:09:13.259Z,32.20
2018-06-29T12:11:42.223Z,31.90
2018-06-29T12:14:10.531Z,31.50
2018-06-29T12:16:38.794Z,31.30
2018-06-29T12:19:07.090Z,31.10
2018-06-29T12:21:35.402Z,30.70
2018-06-29T12:24:03.639Z,30.60
2018-06-29T12:26:31.851Z,30.60
2018-06-29T12:29:00.208Z,30.70
2018-06-29T12:31:28.442Z,30.70
2018-06-29T12:33:56.726Z,30.80
2018-06-29T12:36:24.948Z,31.00
2018-06-29T12:38:53.242Z,31.10
2018-06-29T12:41:21.624Z,31.30
2018-06-29T12:43:49.925Z,31.30
2018-06-29T12:46:18.143Z,31.30
2018-06-29T12:48:46.379Z,31.50
2018-06-29T12:51:14.611Z,31.60
2018-06-29T12:53:42.877Z,31.70
2018-06-29T12:56:11.202Z,31.50
2018-06-29T12:58:39.603Z,31.40
2018-06-29T13:01:08.221Z,31.30
2018-06-29T13:03:36.507Z,31.00
2018-06-29T13:08:32.774Z,31.10
2018-06-29T13:11:01.400Z,31.20
2018-06-29T13:13:29.652Z,31.20
2018-06-29T13:15:57.870Z,31.10
2018-06-29T13:18:26.099Z,31.00
2018-06-29T13:20:54.876Z,31.10
2018-06-29T13:23:23.195Z,31.30
2018-06-29T13:25:51.447Z,31.30
2018-06-29T13:28:19.666Z,31.40
2018-06-29T13:30:47.929Z,31.60
2018-06-29T13:33:16.184Z,31.70
2018-06-29T13:35:44.440Z,31.60
2018-06-29T13:38:12.648Z,31.40
2018-06-29T13:40:40.883Z,31.20
2018-06-29T13:43:09.660Z,31.30
2018-06-29T13:45:37.889Z,31.40
2018-06-29T13:48:06.316Z,31.40
2018-06-29T13:50:34.604Z,31.20
2018-06-29T13:53:03.413Z,31.00
2018-06-29T13:55:32.005Z,31.10
2018-06-29T13:58:00.965Z,31.30
2018-06-29T14:00:29.187Z,31.60
2018-06-29T14:05:26.072Z,31.70
2018-06-29T14:07:54.343Z,31.40
2018-06-29T14:10:22.583Z,31.30
2018-06-29T14:12:50.824Z,31.50
2018-06-29T14:15:19.100Z,31.60
2018-06-29T14:17:47.347Z,31.60
2018-06-29T14:20:15.686Z,31.50
2018-06-29T14:22:43.908Z,31.50
2018-06-29T14:25:12.212Z,31.50
2018-06-29T14:27:40.443Z,31.40
2018-06-29T14:30:08.808Z,31.50
2018-06-29T14:32:37.077Z,31.30
2018-06-29T14:35:05.446Z,31.40
2018-06-29T14:37:33.691Z,31.50
2018-06-29T14:40:01.977Z,31.70
2018-06-29T14:42:30.210Z,31.80
2018-06-29T14:44:58.531Z,31.90
2018-06-29T14:47:26.743Z,31.90
2018-06-29T14:49:54.980Z,31.90
2018-06-29T14:52:23.292Z,31.80
2018-06-29T14:54:51.537Z,31.70
2018-06-29T14:57:19.743Z,31.50
2018-06-29T14:59:47.999Z,31.70
2018-06-29T15:02:16.235Z,31.70
2018-06-29T15:04:44.481Z,31.80
2018-06-29T15:07:12.700Z,32.00
2018-06-29T15:09:40.939Z,32.10
2018-06-29T15:12:09.152Z,32.20
2018-06-29T15:14:37.476Z,32.00
2018-06-29T15:17:06.079Z,31.20
2018-06-29T15:19:34.299Z,30.90
2018-06-29T15:22:02.673Z,30.80
2018-06-29T15:24:30.850Z,30.90
2018-06-29T15:26:59.108Z,30.80
2018-06-29T15:29:27.390Z,30.70
2018-06-29T15:31:55.727Z,30.40
2018-06-29T15:34:23.959Z,30.20
2018-06-29T15:36:52.211Z,29.90
2018-06-29T15:39:20.444Z,29.90
2018-06-29T15:41:48.728Z,30.00
2018-06-29T15:44:16.987Z,30.30
2018-06-29T15:46:45.212Z,30.60
2018-06-29T15:49:13.440Z,30.60
2018-06-29T15:51:41.660Z,30.60
2018-06-29T15:54:09.880Z,30.40
2018-06-29T15:56:38.144Z,30.20
2018-06-29T15:59:06.369Z,30.00
2018-06-29T16:01:34.646Z,30.00
2018-06-29T16:04:02.859Z,30.00
2018-06-29T16:06:31.204Z,30.00
2018-06-29T16:08:59.407Z,29.80
2018-06-29T16:11:27.672Z,29.70
2018-06-29T16:16:24.323Z,29.40
2018-06-29T16:18:52.549Z,29.30
2018-06-29T16:21:20.893Z,29.30
2018-06-29T16:23:49.209Z,29.10
2018-06-29T16:26:17.488Z,29.00
2018-06-29T16:28:45.737Z,28.80
2018-06-29T16:31:14.024Z,28.40
2018-06-29T16:33:42.252Z,27.90
2018-06-29T16:36:10.535Z,27.60
2018-06-29T16:41:07.090Z,27.40
2018-06-29T16:43:35.321Z,27.30
2018-06-29T16:46:03.597Z,27.20
2018-06-29T16:48:31.824Z,26.90
2018-06-29T16:51:00.123Z,26.80
2018-06-29T16:53:28.508Z,26.80
2018-06-29T16:55:56.776Z,26.80
2018-06-29T16:58:25.120Z,26.70
2018-06-29T17:00:53.614Z,26.70
2018-06-29T17:03:22.373Z,26.60
2018-06-29T17:05:50.627Z,26.60
2018-06-29T17:08:18.852Z,26.60
2018-06-29T17:10:47.159Z,26.50
2018-06-29T17:13:15.388Z,26.50
2018-06-29T17:15:43.649Z,26.40
2018-06-29T17:18:11.907Z,26.30
2018-06-29T17:20:40.151Z,26.20
2018-06-29T17:23:08.561Z,26.00
2018-06-29T17:25:36.796Z,25.90
2018-06-29T17:28:05.744Z,25.90
2018-06-29T17:30:34.006Z,25.90
2018-06-29T17:33:02.249Z,25.80
2018-06-29T17:35:30.628Z,25.60
2018-06-29T17:37:58.970Z,25.40
2018-06-29T17:40:27.227Z,25.20
2018-06-29T17:42:55.453Z,24.90
2018-06-29T17:45:23.655Z,24.70
2018-06-29T17:47:51.895Z,24.40
2018-06-29T17:50:20.151Z,24.20
2018-06-29T17:52:48.454Z,24.10
2018-06-29T17:55:16.684Z,24.00
2018-06-29T17:57:44.988Z,23.70
2018-06-29T18:00:13.500Z,23.60
2018-06-29T18:02:42.056Z,23.50
2018-06-29T18:05:10.701Z,23.30
2018-06-29T18:07:38.951Z,23.20
2018-06-29T18:10:07.239Z,23.10
2018-06-29T18:12:35.552Z,23.00
2018-06-29T18:15:03.762Z,22.90
2018-06-29T18:17:32.033Z,22.80
2018-06-29T18:20:00.775Z,22.70
2018-06-29T18:22:29.024Z,22.60
2018-06-29T18:24:57.279Z,22.50
2018-06-29T18:29:53.527Z,22.30
2018-06-29T18:32:21.803Z,22.20
2018-06-29T18:34:50.040Z,22.10
2018-06-29T18:37:18.273Z,22.10
2018-06-29T18:39:46.508Z,22.00
2018-06-29T18:42:14.753Z,22.00
2018-06-29T18:44:42.951Z,22.00
2018-06-29T18:47:11.232Z,21.90
2018-06-29T18:49:39.464Z,21.90
2018-06-29T18:52:07.808Z,21.80
2018-06-29T18:54:36.023Z,21.70
2018-06-29T18:57:04.287Z,21.60
2018-06-29T18:59:32.672Z,21.50
2018-06-29T19:04:28.929Z,21.30
2018-06-29T19:06:57.274Z,21.30
2018-06-29T19:09:25.588Z,21.30
2018-06-29T19:11:54.119Z,21.20
2018-06-29T19:14:22.398Z,21.10
2018-06-29T19:19:18.625Z,20.90
2018-06-29T19:21:46.981Z,20.70
2018-06-29T19:24:15.279Z,20.60
2018-06-29T19:26:43.582Z,20.50
2018-06-29T19:29:11.831Z,20.40
2018-06-29T19:31:40.073Z,20.40
2018-06-29T19:34:08.280Z,20.30
2018-06-29T19:36:36.513Z,20.10
2018-06-29T19:39:07.651Z,20.20
2018-06-29T19:41:35.831Z,20.10
2018-06-29T19:44:04.140Z,20.10
2018-06-29T19:46:32.399Z,20.00
2018-06-29T19:49:00.632Z,20.00
2018-06-29T19:51:28.959Z,19.90
2018-06-29T19:53:57.300Z,19.80
2018-06-29T19:56:25.556Z,19.80
2018-06-29T19:58:53.821Z,19.70
2018-06-29T20:01:22.099Z,19.60
2018-06-29T20:03:50.346Z,19.60
2018-06-29T20:08:46.551Z,19.40
2018-06-29T20:11:14.802Z,19.30
2018-06-29T20:13:43.161Z,19.20
2018-06-29T20:16:11.368Z,19.30
2018-06-29T20:18:39.606Z,19.20
2018-06-29T20:23:36.052Z,18.90
2018-06-29T20:26:04.472Z,18.80
2018-06-29T20:28:32.733Z,18.80
2018-06-29T20:31:01.059Z,18.70
2018-06-29T20:33:29.383Z,18.60
2018-06-29T20:35:57.675Z,18.50
2018-06-29T20:38:26.094Z,18.50
2018-06-29T20:40:54.904Z,18.60
2018-06-29T20:43:24.232Z,18.60
2018-06-29T20:45:52.498Z,18.70
2018-06-29T20:48:21.218Z,18.70
2018-06-29T20:50:49.464Z,18.60
2018-06-29T20:53:17.795Z,18.50
2018-06-29T20:58:14.614Z,18.50
2018-06-29T21:00:42.915Z,18.50
2018-06-29T21:03:11.285Z,18.50
2018-06-29T21:05:39.968Z,18.40
2018-06-29T21:08:08.787Z,18.30
2018-06-29T21:10:38.579Z,18.30
2018-06-29T21:15:35.671Z,18.20
2018-06-29T21:18:03.913Z,18.20
2018-06-29T21:20:32.220Z,18.00
2018-06-29T21:23:00.626Z,17.90
2018-06-29T21:25:29.658Z,17.90
2018-06-29T21:27:58.079Z,17.90
2018-06-29T21:32:54.455Z,17.70
2018-06-29T21:35:22.696Z,17.70
2018-06-29T21:37:51.033Z,17.70
2018-06-29T21:40:19.396Z,17.60
2018-06-29T21:42:48.232Z,17.50
2018-06-29T21:45:16.512Z,17.50
2018-06-29T21:47:44.756Z,17.40
2018-06-29T21:50:13.003Z,17.30
2018-06-29T21:52:41.353Z,17.30
2018-06-29T21:55:09.988Z,17.20
2018-06-29T22:00:08.661Z,17.10
2018-06-29T22:02:37.015Z,17.00
2018-06-29T22:05:05.270Z,16.90
2018-06-29T22:07:33.515Z,16.80
2018-06-29T22:10:02.171Z,16.70
2018-06-29T22:12:30.418Z,16.70
2018-06-29T22:14:58.717Z,16.60
2018-06-29T22:17:26.927Z,16.60
2018-06-29T22:19:55.163Z,16.50
2018-06-29T22:22:23.412Z,16.50
2018-06-29T22:24:51.669Z,16.40
2018-06-29T22:27:19.957Z,16.20
2018-06-29T22:29:48.423Z,16.10
2018-06-29T22:32:17.043Z,16.00
2018-06-29T22:34:45.330Z,16.00
2018-06-29T22:37:13.573Z,15.90
2018-06-29T22:39:41.916Z,15.80
2018-06-29T22:42:10.467Z,15.70
2018-06-29T22:44:38.744Z,15.60
2018-06-29T22:47:06.988Z,15.50
2018-06-29T22:49:35.231Z,15.40
2018-06-29T22:52:03.435Z,15.30
2018-06-29T22:54:31.677Z,15.20
2018-06-29T22:59:28.146Z,15.10
2018-06-29T23:01:56.364Z,15.00
2018-06-29T23:04:24.623Z,14.90
2018-06-29T23:06:55.796Z,14.80
2018-06-29T23:09:24.220Z,14.80
2018-06-29T23:11:53.074Z,14.70
2018-06-29T23:16:49.507Z,14.60
2018-06-29T23:19:17.755Z,14.60
2018-06-29T23:21:45.980Z,14.50
2018-06-29T23:26:42.969Z,14.50
2018-06-29T23:29:12.773Z,14.40
2018-06-29T23:31:41.239Z,14.40
2018-06-29T23:34:10.010Z,14.40
2018-06-29T23:39:07.908Z,14.20
2018-06-29T23:41:36.251Z,14.10
2018-06-29T23:44:04.502Z,14.00
2018-06-29T23:46:32.877Z,14.00
2018-06-29T23:49:01.250Z,13.90
2018-06-29T23:51:30.040Z,13.80
2018-06-29T23:53:58.314Z,13.80
2018-06-29T23:56:26.693Z,13.70
2018-06-29T23:58:54.972Z,13.70
